Time;durP1;ratioP1;P1;durP2;ratioP2;P2;SDS_P1;SDS_P2;PMS_P1;PMS_P2;Temp;Humidity;BMP_temperature;BMP_pressure;BME280_temperature;BME280_humidity;BME280_pressure;Samples;Min_cycle;Max_cycle;Signal;HPM_P1;HPM_P2
2021/06/30 00:00:00;;;;;;;21.58;7.10;;;;;;;;;;5133572;28;20476;-68
2021/06/30 00:02:26;;;;;;;19.83;6.97;;;;;;;;;;5115460;28;20027;-69
2021/06/30 00:04:52;;;;;;;18.85;7.50;;;;;;;;;;5115322;28;20360;-67
2021/06/30 00:07:19;;;;;;;11.63;7.53;;;;;;;;;;5133821;28;20528;-66
2021/06/30 00:09:45;;;;;;;16.73;7.78;;;;;;;;;;5133802;28;20054;-67
2021/06/30 00:12:11;;;;;;;25.05;7.50;;;;;;;;;;5115307;28;20023;-67
2021/06/30 00:14:38;;;;;;;17.38;8.02;;;;;;;;;;5133734;28;20456;-70
2021/06/30 00:17:07;;;;;;;21.60;8.05;;;;;;;;;;5133640;28;20072;-68
2021/06/30 00:19:33;;;;;;;19.58;7.13;;;;;;;;;;5133716;28;20488;-69
2021/06/30 00:21:59;;;;;;;18.95;7.13;;;;;;;;;;5133723;28;20055;-69
2021/06/30 00:24:25;;;;;;;20.25;6.85;;;;;;;;;;5115217;27;20463;-68
2021/06/30 00:26:52;;;;;;;18.88;6.25;;;;;;;;;;5117925;27;20110;-70
2021/06/30 00:29:18;;;;;;;11.27;6.80;;;;;;;;;;5137545;27;20023;-70
2021/06/30 00:31:45;;;;;;;17.38;7.07;;;;;;;;;;5137540;27;20019;-69
2021/06/30 00:34:11;;;;;;;19.25;7.88;;;;;;;;;;5137467;27;20061;-67
2021/06/30 00:36:47;;;;;;;16.42;7.32;;;;;;;;;;5136595;27;20043;-68
2021/06/30 00:39:17;;;;;;;17.33;7.70;;;;;;;;;;5137351;27;20047;-69
2021/06/30 00:41:44;;;;;;;15.80;7.30;;;;;;;;;;5118914;27;20033;-68
2021/06/30 00:44:11;;;;;;;18.25;7.50;;;;;;;;;;5137500;27;20031;-68
2021/06/30 00:46:37;;;;;;;24.33;8.43;;;;;;;;;;5137156;27;20069;-69
2021/06/30 00:49:05;;;;;;;19.15;8.10;;;;;;;;;;5136854;27;20024;-69
2021/06/30 00:51:32;;;;;;;20.33;7.35;;;;;;;;;;5137150;27;20023;-70
2021/06/30 00:53:58;;;;;;;19.88;7.70;;;;;;;;;;5137074;27;20042;-72
2021/06/30 00:56:28;;;;;;;25.85;8.65;;;;;;;;;;5137004;27;20149;-66
2021/06/30 00:58:56;;;;;;;23.08;8.57;;;;;;;;;;5136945;27;20122;-70
2021/06/30 01:01:24;;;;;;;14.43;7.88;;;;;;;;;;5136886;27;20042;-67
2021/06/30 01:03:51;;;;;;;23.45;8.95;;;;;;;;;;5136587;27;20372;-69
2021/06/30 01:06:17;;;;;;;26.05;9.07;;;;;;;;;;5137090;27;20098;-69
2021/06/30 01:08:44;;;;;;;26.33;8.30;;;;;;;;;;5137051;27;20535;-66
2021/06/30 01:11:11;;;;;;;26.75;8.68;;;;;;;;;;5118298;27;20114;-69
2021/06/30 01:13:38;;;;;;;18.88;8.43;;;;;;;;;;5118293;27;20023;-70
2021/06/30 01:16:05;;;;;;;18.67;7.85;;;;;;;;;;5136639;27;20102;-68
2021/06/30 01:18:32;;;;;;;18.25;8.25;;;;;;;;;;5136573;27;20027;-70
2021/06/30 01:20:59;;;;;;;22.13;9.73;;;;;;;;;;5136579;27;20035;-69
2021/06/30 01:23:26;;;;;;;19.48;8.73;;;;;;;;;;5118080;27;20100;-70
2021/06/30 01:25:52;;;;;;;18.58;9.40;;;;;;;;;;5117685;27;20023;-69
2021/06/30 01:28:19;;;;;;;24.02;9.98;;;;;;;;;;5136353;27;20540;-67
2021/06/30 01:30:46;;;;;;;22.73;10.18;;;;;;;;;;5136376;27;20023;-71
2021/06/30 01:33:12;;;;;;;33.65;10.50;;;;;;;;;;5136350;27;20028;-68
2021/06/30 01:35:39;;;;;;;25.73;9.90;;;;;;;;;;5117876;27;20020;-67
2021/06/30 01:38:05;;;;;;;21.88;9.85;;;;;;;;;;5135259;27;20039;-70
2021/06/30 01:40:32;;;;;;;25.95;9.52;;;;;;;;;;5117760;27;20023;-69
2021/06/30 01:42:59;;;;;;;21.20;8.98;;;;;;;;;;5136223;27;20023;-72
2021/06/30 01:45:25;;;;;;;20.55;9.00;;;;;;;;;;5136057;27;20022;-67
2021/06/30 01:47:52;;;;;;;18.80;8.68;;;;;;;;;;5117586;27;20019;-69
2021/06/30 01:50:18;;;;;;;31.60;9.05;;;;;;;;;;5135693;27;20019;-68
2021/06/30 01:52:45;;;;;;;20.58;8.23;;;;;;;;;;5117564;27;20114;-66
2021/06/30 01:55:13;;;;;;;25.27;7.72;;;;;;;;;;5117496;27;20023;-67
2021/06/30 01:57:40;;;;;;;24.45;7.85;;;;;;;;;;5135788;27;20035;-68
2021/06/30 02:00:07;;;;;;;24.58;7.13;;;;;;;;;;5135816;27;20047;-67
2021/06/30 02:02:33;;;;;;;24.40;7.13;;;;;;;;;;5135802;27;20050;-68
2021/06/30 02:05:03;;;;;;;20.45;6.95;;;;;;;;;;5117249;27;20161;-68
2021/06/30 02:07:31;;;;;;;15.98;7.65;;;;;;;;;;5135774;27;20511;-67
2021/06/30 02:09:58;;;;;;;24.63;7.53;;;;;;;;;;5135568;27;20102;-66
2021/06/30 02:12:24;;;;;;;21.17;7.53;;;;;;;;;;5135594;27;20019;-68
2021/06/30 02:14:50;;;;;;;20.75;6.88;;;;;;;;;;5135465;27;20165;-67
2021/06/30 02:17:18;;;;;;;15.77;7.43;;;;;;;;;;5116951;27;20110;-70
2021/06/30 02:19:48;;;;;;;20.35;6.80;;;;;;;;;;5135388;27;20027;-65
2021/06/30 02:22:14;;;;;;;16.92;7.60;;;;;;;;;;5135364;27;20019;-67
2021/06/30 02:24:40;;;;;;;14.95;5.82;;;;;;;;;;5135296;27;20035;-67
2021/06/30 02:27:07;;;;;;;22.48;6.88;;;;;;;;;;5116810;27;20584;-67
2021/06/30 02:29:33;;;;;;;21.23;6.90;;;;;;;;;;5135445;27;20117;-68
2021/06/30 02:31:59;;;;;;;16.98;6.90;;;;;;;;;;5135188;27;20023;-68
2021/06/30 02:34:26;;;;;;;25.08;7.03;;;;;;;;;;5116681;27;20057;-67
2021/06/30 02:36:52;;;;;;;24.08;6.63;;;;;;;;;;5134687;27;20118;-67
2021/06/30 02:39:19;;;;;;;18.95;6.53;;;;;;;;;;5134929;27;20034;-69
2021/06/30 02:41:45;;;;;;;16.65;7.38;;;;;;;;;;5116573;27;20054;-69
2021/06/30 02:44:11;;;;;;;25.60;7.05;;;;;;;;;;5134676;27;20099;-67
2021/06/30 02:46:37;;;;;;;20.45;7.03;;;;;;;;;;5134871;27;20072;-68
2021/06/30 02:49:04;;;;;;;23.10;6.25;;;;;;;;;;5134029;27;20065;-69
2021/06/30 02:51:30;;;;;;;16.98;6.20;;;;;;;;;;5116375;27;20057;-67
2021/06/30 02:53:56;;;;;;;13.93;6.20;;;;;;;;;;5134836;27;20021;-67
2021/06/30 02:56:23;;;;;;;19.92;5.97;;;;;;;;;;5116217;27;20065;-66
2021/06/30 02:58:49;;;;;;;23.65;6.30;;;;;;;;;;5134681;27;20053;-66
2021/06/30 03:01:17;;;;;;;20.77;6.60;;;;;;;;;;5134375;27;20050;-69
2021/06/30 03:03:43;;;;;;;21.40;6.53;;;;;;;;;;5134646;27;20019;-69
2021/06/30 03:06:10;;;;;;;17.50;6.85;;;;;;;;;;5134572;27;20030;-68
2021/06/30 03:08:36;;;;;;;24.00;6.47;;;;;;;;;;5134838;27;20160;-70
2021/06/30 03:11:02;;;;;;;24.90;6.97;;;;;;;;;;5139179;27;20365;-68
2021/06/30 03:13:29;;;;;;;22.08;6.57;;;;;;;;;;5138977;27;20119;-69
2021/06/30 03:15:55;;;;;;;26.95;7.05;;;;;;;;;;5121803;27;20025;-67
2021/06/30 03:18:21;;;;;;;23.75;6.63;;;;;;;;;;5140120;27;20039;-67
2021/06/30 03:20:47;;;;;;;29.80;6.68;;;;;;;;;;5139603;27;20024;-67
2021/06/30 03:23:14;;;;;;;18.73;6.88;;;;;;;;;;5140340;27;20551;-67
2021/06/30 03:25:40;;;;;;;22.25;7.80;;;;;;;;;;5139768;27;20023;-66
2021/06/30 03:28:07;;;;;;;20.08;5.88;;;;;;;;;;5136441;27;20037;-69
2021/06/30 03:30:34;;;;;;;23.50;6.35;;;;;;;;;;5134201;27;20023;-68
2021/06/30 03:33:01;;;;;;;15.48;5.95;;;;;;;;;;5134254;27;20080;-69
2021/06/30 03:35:28;;;;;;;25.38;7.13;;;;;;;;;;5134410;27;20022;-71
2021/06/30 03:37:54;;;;;;;17.85;6.30;;;;;;;;;;5133587;27;20104;-68
2021/06/30 03:40:21;;;;;;;21.55;5.88;;;;;;;;;;5134320;28;20102;-68
2021/06/30 03:42:47;;;;;;;24.45;6.72;;;;;;;;;;5134121;28;20099;-69
2021/06/30 03:45:14;;;;;;;22.40;6.70;;;;;;;;;;5115599;28;20081;-68
2021/06/30 03:47:40;;;;;;;27.25;6.90;;;;;;;;;;5133999;28;20019;-66
2021/06/30 03:50:06;;;;;;;16.48;5.68;;;;;;;;;;5133984;28;20038;-67
2021/06/30 03:52:33;;;;;;;22.25;5.75;;;;;;;;;;5115523;28;20023;-68
2021/06/30 03:54:59;;;;;;;20.10;6.40;;;;;;;;;;5133957;28;20023;-67
2021/06/30 03:57:25;;;;;;;16.33;6.35;;;;;;;;;;5134111;28;20110;-67
2021/06/30 03:59:52;;;;;;;20.73;6.05;;;;;;;;;;5135069;27;20022;-66
2021/06/30 04:02:18;;;;;;;17.08;6.57;;;;;;;;;;5138082;27;20018;-69
2021/06/30 04:04:45;;;;;;;18.00;6.13;;;;;;;;;;5138095;27;20033;-69
2021/06/30 04:07:12;;;;;;;18.65;5.75;;;;;;;;;;5138289;27;20029;-67
2021/06/30 04:09:38;;;;;;;22.58;5.75;;;;;;;;;;5137911;27;20051;-68
2021/06/30 04:12:04;;;;;;;30.55;7.10;;;;;;;;;;5137889;27;20125;-66
2021/06/30 04:14:30;;;;;;;23.92;6.00;;;;;;;;;;5137889;27;20590;-66
2021/06/30 04:16:57;;;;;;;22.30;6.65;;;;;;;;;;5137815;27;20030;-66
2021/06/30 04:19:23;;;;;;;20.95;7.47;;;;;;;;;;5118931;27;20175;-67
2021/06/30 04:21:50;;;;;;;32.03;7.35;;;;;;;;;;5137716;27;20034;-67
2021/06/30 04:24:16;;;;;;;31.15;6.55;;;;;;;;;;5137709;27;20019;-68
2021/06/30 04:26:42;;;;;;;20.92;6.40;;;;;;;;;;5137608;27;20027;-68
2021/06/30 04:29:09;;;;;;;29.75;6.93;;;;;;;;;;5137630;27;20150;-67
2021/06/30 04:31:35;;;;;;;21.35;6.28;;;;;;;;;;5137512;27;20026;-66
2021/06/30 04:34:01;;;;;;;31.88;7.53;;;;;;;;;;5137535;27;20033;-68
2021/06/30 04:36:28;;;;;;;28.15;7.32;;;;;;;;;;5137256;27;20035;-68
2021/06/30 04:38:54;;;;;;;26.17;6.95;;;;;;;;;;5137279;27;20072;-67
2021/06/30 04:41:20;;;;;;;38.35;8.32;;;;;;;;;;5137546;27;20054;-67
2021/06/30 04:43:46;;;;;;;39.67;7.55;;;;;;;;;;5118860;27;20126;-67
2021/06/30 04:46:13;;;;;;;29.40;8.07;;;;;;;;;;5118829;27;20058;-67
2021/06/30 04:48:39;;;;;;;32.22;9.30;;;;;;;;;;5137166;27;20019;-68
2021/06/30 04:51:06;;;;;;;23.90;5.78;;;;;;;;;;5137165;27;20019;-68
2021/06/30 04:53:32;;;;;;;28.60;6.88;;;;;;;;;;5137160;27;20031;-68
2021/06/30 04:55:59;;;;;;;25.95;7.07;;;;;;;;;;5137067;27;20026;-67
2021/06/30 04:58:26;;;;;;;26.95;6.55;;;;;;;;;;5137062;27;20051;-67
2021/06/30 05:00:54;;;;;;;20.58;6.78;;;;;;;;;;5136979;27;20395;-67
2021/06/30 05:03:21;;;;;;;27.65;7.05;;;;;;;;;;5136967;27;20088;-67
2021/06/30 05:05:47;;;;;;;30.40;7.10;;;;;;;;;;5136902;27;20016;-69
2021/06/30 05:08:14;;;;;;;32.10;8.20;;;;;;;;;;5136821;27;20023;-68
2021/06/30 05:10:40;;;;;;;28.75;10.85;;;;;;;;;;5136704;27;20455;-70
2021/06/30 05:13:06;;;;;;;33.67;10.63;;;;;;;;;;5136025;27;20023;-68
2021/06/30 05:15:32;;;;;;;27.88;10.70;;;;;;;;;;5136395;27;20015;-67
2021/06/30 05:17:58;;;;;;;27.65;9.43;;;;;;;;;;5136501;27;20482;-67
2021/06/30 05:20:25;;;;;;;30.92;9.00;;;;;;;;;;5136235;27;20025;-68
2021/06/30 05:22:51;;;;;;;20.67;7.97;;;;;;;;;;5136436;27;20024;-69
2021/06/30 05:25:17;;;;;;;19.60;6.15;;;;;;;;;;5136529;27;20101;-69
2021/06/30 05:27:44;;;;;;;25.13;6.45;;;;;;;;;;5136399;27;20575;-68
2021/06/30 05:30:10;;;;;;;24.52;6.47;;;;;;;;;;5117766;27;20117;-68
2021/06/30 05:32:36;;;;;;;19.30;5.68;;;;;;;;;;5135545;27;20493;-66
2021/06/30 05:35:03;;;;;;;19.20;6.05;;;;;;;;;;5136045;27;20027;-68
2021/06/30 05:37:29;;;;;;;17.52;6.00;;;;;;;;;;5101178;28;20048;-69
2021/06/30 05:39:55;;;;;;;18.90;6.72;;;;;;;;;;5093913;28;20025;-69
2021/06/30 05:42:21;;;;;;;19.23;6.13;;;;;;;;;;5093891;28;20028;-69
2021/06/30 05:44:48;;;;;;;25.42;6.85;;;;;;;;;;5095160;28;20028;-69
2021/06/30 05:47:14;;;;;;;21.23;5.93;;;;;;;;;;5093529;28;20059;-67
2021/06/30 05:49:40;;;;;;;20.13;6.03;;;;;;;;;;5093767;28;20096;-69
2021/06/30 05:52:06;;;;;;;24.55;6.20;;;;;;;;;;5094750;28;20107;-69
2021/06/30 05:54:32;;;;;;;23.05;6.85;;;;;;;;;;5093460;28;20024;-69
2021/06/30 05:56:59;;;;;;;19.88;6.90;;;;;;;;;;5094887;28;20044;-70
2021/06/30 05:59:25;;;;;;;31.02;6.88;;;;;;;;;;5094765;28;20107;-69
2021/06/30 06:01:51;;;;;;;27.48;6.47;;;;;;;;;;5094734;28;20036;-68
2021/06/30 06:04:18;;;;;;;27.10;6.22;;;;;;;;;;5094755;28;20058;-73
2021/06/30 06:06:44;;;;;;;24.95;5.82;;;;;;;;;;5093403;28;20120;-69
2021/06/30 06:09:10;;;;;;;21.45;5.60;;;;;;;;;;5094377;28;20039;-69
2021/06/30 06:11:36;;;;;;;24.55;5.32;;;;;;;;;;5093314;28;20376;-70
2021/06/30 06:14:03;;;;;;;21.52;6.38;;;;;;;;;;5094315;28;20023;-71
2021/06/30 06:16:29;;;;;;;26.25;5.38;;;;;;;;;;5093226;28;20372;-69
2021/06/30 06:18:55;;;;;;;19.55;5.43;;;;;;;;;;5093066;28;20133;-70
2021/06/30 06:21:21;;;;;;;28.95;6.28;;;;;;;;;;5094150;28;20024;-69
2021/06/30 06:23:48;;;;;;;42.13;7.43;;;;;;;;;;5093077;28;20107;-70
2021/06/30 06:26:16;;;;;;;37.83;6.35;;;;;;;;;;5094056;28;20472;-70
2021/06/30 06:28:42;;;;;;;29.77;6.20;;;;;;;;;;5094185;28;20032;-70
2021/06/30 06:31:15;;;;;;;21.67;5.75;;;;;;;;;;5094185;28;20031;-69
2021/06/30 06:33:41;;;;;;;13.93;5.40;;;;;;;;;;5094183;28;20031;-69
2021/06/30 06:36:08;;;;;;;33.65;6.95;;;;;;;;;;5094979;27;20487;-69
2021/06/30 06:38:36;;;;;;;27.20;6.38;;;;;;;;;;5134967;27;20085;-69
2021/06/30 06:41:02;;;;;;;23.42;6.43;;;;;;;;;;5116388;27;20049;-70
2021/06/30 06:43:28;;;;;;;24.17;6.05;;;;;;;;;;5135002;27;20498;-69
2021/06/30 06:45:54;;;;;;;21.13;5.35;;;;;;;;;;5134653;27;20440;-66
2021/06/30 06:48:21;;;;;;;23.05;6.13;;;;;;;;;;5135003;27;20520;-69
2021/06/30 06:50:47;;;;;;;18.20;5.40;;;;;;;;;;5116376;27;20015;-72
2021/06/30 06:53:13;;;;;;;22.23;4.97;;;;;;;;;;5115338;27;20102;-68
2021/06/30 06:55:39;;;;;;;25.10;5.18;;;;;;;;;;5134306;27;20497;-68
2021/06/30 06:58:06;;;;;;;23.33;5.40;;;;;;;;;;5134470;27;20109;-67
2021/06/30 07:00:32;;;;;;;16.02;4.90;;;;;;;;;;5134853;27;20031;-70
2021/06/30 07:02:58;;;;;;;18.20;4.85;;;;;;;;;;5134555;27;20470;-68
2021/06/30 07:05:24;;;;;;;19.45;5.90;;;;;;;;;;5134418;27;20098;-71
2021/06/30 07:07:50;;;;;;;16.13;5.10;;;;;;;;;;5134196;27;20094;-72
2021/06/30 07:10:17;;;;;;;17.40;5.10;;;;;;;;;;5134262;27;20141;-69
2021/06/30 07:12:43;;;;;;;18.13;5.75;;;;;;;;;;5134281;27;20046;-69
2021/06/30 07:15:10;;;;;;;17.05;4.90;;;;;;;;;;5134383;27;20029;-68
2021/06/30 07:17:37;;;;;;;14.30;4.90;;;;;;;;;;5134234;27;20123;-67
2021/06/30 07:20:05;;;;;;;20.63;5.10;;;;;;;;;;5134288;27;20062;-68
2021/06/30 07:22:31;;;;;;;16.77;4.47;;;;;;;;;;5115766;27;20122;-69
2021/06/30 07:24:57;;;;;;;15.38;4.22;;;;;;;;;;5132487;27;20101;-70
2021/06/30 07:27:23;;;;;;;18.42;5.40;;;;;;;;;;5133646;27;20514;-70
2021/06/30 07:29:49;;;;;;;22.95;4.68;;;;;;;;;;5133447;27;20404;-68
2021/06/30 07:32:16;;;;;;;15.45;4.32;;;;;;;;;;5133941;27;20479;-69
2021/06/30 07:34:43;;;;;;;20.35;4.57;;;;;;;;;;5133638;27;20113;-70
2021/06/30 07:37:09;;;;;;;14.30;5.03;;;;;;;;;;5133873;27;20104;-69
2021/06/30 07:39:36;;;;;;;15.88;3.78;;;;;;;;;;5133957;27;20467;-67
2021/06/30 07:42:02;;;;;;;18.58;4.80;;;;;;;;;;5133884;28;20023;-69
2021/06/30 07:44:29;;;;;;;11.38;3.95;;;;;;;;;;5133909;28;20090;-68
2021/06/30 07:46:56;;;;;;;18.85;5.03;;;;;;;;;;5115425;28;20023;-69
2021/06/30 07:49:22;;;;;;;28.77;4.05;;;;;;;;;;5133877;28;20030;-69
2021/06/30 07:51:50;;;;;;;13.07;3.70;;;;;;;;;;5133992;28;20072;-68
2021/06/30 07:54:17;;;;;;;14.65;3.80;;;;;;;;;;5133653;28;20034;-70
2021/06/30 07:56:43;;;;;;;15.05;3.75;;;;;;;;;;5133500;28;20015;-67
2021/06/30 07:59:13;;;;;;;16.20;4.40;;;;;;;;;;5133665;28;20028;-67
2021/06/30 08:01:39;;;;;;;13.60;3.63;;;;;;;;;;5133785;28;20109;-69
2021/06/30 08:04:07;;;;;;;18.48;4.10;;;;;;;;;;5133812;28;20503;-68
2021/06/30 08:06:33;;;;;;;20.33;4.25;;;;;;;;;;5133780;28;20023;-65
2021/06/30 08:09:00;;;;;;;11.90;3.53;;;;;;;;;;5115388;28;20050;-67
2021/06/30 08:11:26;;;;;;;16.45;4.03;;;;;;;;;;5133425;28;20444;-69
2021/06/30 08:13:53;;;;;;;16.20;3.85;;;;;;;;;;5115276;28;20023;-67
2021/06/30 08:16:20;;;;;;;11.55;3.60;;;;;;;;;;5133264;28;20353;-69
2021/06/30 08:18:46;;;;;;;12.68;4.10;;;;;;;;;;5115242;28;20479;-70
2021/06/30 08:21:13;;;;;;;11.30;4.20;;;;;;;;;;5133669;28;20039;-69
2021/06/30 08:23:39;;;;;;;14.13;4.57;;;;;;;;;;5133582;28;20019;-70
2021/06/30 08:26:08;;;;;;;15.85;5.05;;;;;;;;;;5133374;28;20094;-67
2021/06/30 08:28:35;;;;;;;15.45;3.85;;;;;;;;;;5133229;28;20483;-70
2021/06/30 08:31:01;;;;;;;22.13;4.05;;;;;;;;;;5133498;28;20092;-68
2021/06/30 08:33:27;;;;;;;14.18;3.70;;;;;;;;;;5114994;28;20050;-67
2021/06/30 08:35:55;;;;;;;12.82;3.45;;;;;;;;;;5133582;28;20030;-68
2021/06/30 08:38:21;;;;;;;20.95;4.50;;;;;;;;;;5133563;28;20047;-69
2021/06/30 08:40:48;;;;;;;13.68;4.38;;;;;;;;;;5133442;28;20440;-67
2021/06/30 08:43:15;;;;;;;18.05;4.15;;;;;;;;;;5115054;28;20031;-67
2021/06/30 08:45:42;;;;;;;13.13;4.55;;;;;;;;;;5133228;27;20023;-67
2021/06/30 08:48:09;;;;;;;19.23;4.57;;;;;;;;;;5136374;27;20367;-68
2021/06/30 08:50:37;;;;;;;16.73;4.10;;;;;;;;;;5136776;27;20114;-71
2021/06/30 08:53:04;;;;;;;15.18;4.03;;;;;;;;;;5136630;27;20043;-69
2021/06/30 08:55:30;;;;;;;21.88;4.20;;;;;;;;;;5136669;27;20352;-70
2021/06/30 08:57:57;;;;;;;11.13;3.45;;;;;;;;;;5136389;27;20027;-71
2021/06/30 09:00:23;;;;;;;15.07;3.80;;;;;;;;;;5118019;27;20034;-69
2021/06/30 09:02:56;;;;;;;15.77;3.83;;;;;;;;;;5118383;27;20383;-68
2021/06/30 09:07:52;;;;;;;16.63;3.55;;;;;;;;;;5136843;27;20382;-69
2021/06/30 09:10:35;;;;;;;18.15;4.03;;;;;;;;;;5118389;27;20041;-68
2021/06/30 09:13:02;;;;;;;9.35;3.05;;;;;;;;;;5136656;27;20106;-68
2021/06/30 09:15:35;;;;;;;15.82;3.97;;;;;;;;;;5136647;27;20098;-70
2021/06/30 09:18:19;;;;;;;11.32;3.67;;;;;;;;;;5136590;27;20039;-70
2021/06/30 09:20:47;;;;;;;22.20;3.85;;;;;;;;;;5136557;27;20019;-69
2021/06/30 09:23:14;;;;;;;11.15;3.85;;;;;;;;;;5136532;27;20053;-69
2021/06/30 09:25:41;;;;;;;13.15;3.47;;;;;;;;;;5136589;27;20060;-70
2021/06/30 09:28:15;;;;;;;13.32;3.92;;;;;;;;;;5136392;27;20050;-71
2021/06/30 09:31:00;;;;;;;16.58;3.90;;;;;;;;;;5117847;27;20037;-67
2021/06/30 09:33:44;;;;;;;13.80;3.70;;;;;;;;;;5136313;27;20488;-68
2021/06/30 09:36:13;;;;;;;14.65;3.58;;;;;;;;;;5135775;27;20494;-68
2021/06/30 09:38:40;;;;;;;12.63;3.38;;;;;;;;;;5136254;27;20034;-68
2021/06/30 09:41:07;;;;;;;15.30;4.15;;;;;;;;;;5117735;27;20106;-68
2021/06/30 09:43:34;;;;;;;12.35;3.50;;;;;;;;;;5136181;27;20030;-68
2021/06/30 09:46:02;;;;;;;11.75;3.45;;;;;;;;;;5136187;27;20130;-70
2021/06/30 09:48:33;;;;;;;15.00;4.38;;;;;;;;;;5136035;27;20030;-69
2021/06/30 09:50:59;;;;;;;;;;;;;;;;;;5117855;27;20467;-70
2021/06/30 09:53:35;;;;;;;16.27;3.50;;;;;;;;;;5117128;27;19910;-69
2021/06/30 09:56:12;;;;;;;11.63;3.38;;;;;;;;;;5135964;27;20468;-69
2021/06/30 09:58:38;;;;;;;11.98;3.08;;;;;;;;;;5116925;27;20418;-70
2021/06/30 10:01:18;;;;;;;12.77;3.35;;;;;;;;;;5117424;27;20023;-69
2021/06/30 10:03:44;;;;;;;14.75;3.03;;;;;;;;;;5133593;27;20034;-69
2021/06/30 10:06:24;;;;;;;12.80;3.97;;;;;;;;;;5135059;27;20061;-67
2021/06/30 10:08:50;;;;;;;15.32;3.90;;;;;;;;;;5116661;27;20038;-66
2021/06/30 10:11:16;;;;;;;8.40;2.92;;;;;;;;;;5116868;27;20444;-67
2021/06/30 10:13:42;;;;;;;16.98;3.22;;;;;;;;;;5135246;27;20020;-66
2021/06/30 10:16:09;;;;;;;9.75;3.53;;;;;;;;;;5135433;27;20027;-68
2021/06/30 10:18:35;;;;;;;9.48;3.13;;;;;;;;;;5134849;27;20765;-67
2021/06/30 10:21:01;;;;;;;13.07;3.40;;;;;;;;;;5114704;27;20019;-67
2021/06/30 10:23:28;;;;;;;13.73;3.10;;;;;;;;;;5135152;27;20095;-68
2021/06/30 10:25:55;;;;;;;12.25;3.55;;;;;;;;;;5135110;27;20019;-67
2021/06/30 10:28:21;;;;;;;13.13;3.45;;;;;;;;;;5135443;27;20090;-67
2021/06/30 10:30:48;;;;;;;10.13;3.38;;;;;;;;;;5135212;27;20102;-67
2021/06/30 10:33:29;;;;;;;11.13;2.63;;;;;;;;;;5134447;27;20455;-67
2021/06/30 10:35:55;;;;;;;6.88;3.22;;;;;;;;;;5135191;27;20474;-66
2021/06/30 10:38:21;;;;;;;12.32;3.67;;;;;;;;;;5116353;27;20050;-67
2021/06/30 10:40:48;;;;;;;16.42;3.58;;;;;;;;;;5134776;27;20132;-67
2021/06/30 10:43:14;;;;;;;11.48;3.33;;;;;;;;;;5116542;27;20031;-67
2021/06/30 10:45:43;;;;;;;10.63;3.42;;;;;;;;;;5134916;27;20023;-68
2021/06/30 10:48:11;;;;;;;16.05;3.80;;;;;;;;;;5135137;27;20079;-69
2021/06/30 10:50:42;;;;;;;15.65;3.60;;;;;;;;;;5134782;27;20090;-68
2021/06/30 10:53:11;;;;;;;9.50;4.53;;;;;;;;;;5135129;27;20016;-66
2021/06/30 10:55:41;;;;;;;11.43;2.85;;;;;;;;;;5134413;27;20185;-64
2021/06/30 10:58:13;;;;;;;14.80;3.47;;;;;;;;;;5116083;27;20063;-65
2021/06/30 11:00:49;;;;;;;14.45;3.75;;;;;;;;;;5134593;27;20030;-66
2021/06/30 11:03:25;;;;;;;25.50;4.30;;;;;;;;;;5134467;27;20467;-66
2021/06/30 11:06:18;;;;;;;12.18;3.40;;;;;;;;;;5115739;27;20023;-66
2021/06/30 11:08:46;;;;;;;14.60;3.92;;;;;;;;;;5123543;27;20428;-66
2021/06/30 11:11:15;;;;;;;11.68;3.40;;;;;;;;;;5133200;27;20019;-66
2021/06/30 11:13:58;;;;;;;9.80;3.58;;;;;;;;;;5115478;27;20467;-65
2021/06/30 11:16:40;;;;;;;14.50;3.38;;;;;;;;;;5134456;27;20483;-65
2021/06/30 11:19:08;;;;;;;14.07;3.25;;;;;;;;;;5115732;27;20024;-65
2021/06/30 11:21:58;;;;;;;16.85;3.67;;;44.10;42.40;;;;;;5134225;27;20061;-68
2021/06/30 11:24:38;;;;;;;17.07;4.33;;;43.90;42.00;;;;;;5114628;27;20144;-66
2021/06/30 11:27:13;;;;;;;18.17;4.30;;;44.00;43.60;;;;;;5115349;28;20019;-67
2021/06/30 11:29:42;;;;;;;14.27;3.83;;;44.60;43.10;;;;;;5134173;27;20027;-66
2021/06/30 11:32:29;;;;;;;14.48;3.85;;;44.90;41.20;;;;;;5115650;27;20026;-65
2021/06/30 11:34:55;;;;;;;13.18;4.50;;;;;;;;;;5115997;27;20047;-66
2021/06/30 11:37:21;;;;;;;17.75;4.03;;;;;;;;;;5131498;27;20059;-67
2021/06/30 11:39:52;;;;;;;16.23;4.07;;;;;;;;;;5133613;27;20103;-66
2021/06/30 11:42:48;;;;;;;19.50;4.07;;;45.20;44.40;;;;;;5131859;28;20099;-68
2021/06/30 11:45:25;;;;;;;17.15;4.30;;;46.40;60.80;;;;;;5131533;28;20049;-67
2021/06/30 11:47:54;;;;;;;21.30;4.55;;;46.60;55.50;;;;;;5114028;28;20404;-67
2021/06/30 11:50:31;;;;;;;13.80;3.88;;;46.60;49.40;;;;;;5133907;28;20027;-65
2021/06/30 11:52:58;;;;;;;26.45;4.60;;;;;;;;;;5133427;28;20030;-68
2021/06/30 11:55:26;;;;;;;16.25;4.30;;;47.10;60.20;;;;;;5133736;28;20094;-65
2021/06/30 11:57:57;;;;;;;18.70;4.35;;;;;;;;;;5133696;28;20035;-67
2021/06/30 12:00:24;;;;;;;16.63;4.50;;;;;;;;;;5133690;28;20494;-66
2021/06/30 12:03:00;;;;;;;15.68;3.78;;;;;;;;;;5133424;28;20054;-68
2021/06/30 12:05:27;;;;;;;16.20;3.53;;;;;;;;;;5114607;28;20015;-67
2021/06/30 12:07:54;;;;;;;17.42;3.83;;;47.80;74.50;;;;;;5133054;28;20399;-67
2021/06/30 12:10:22;;;;;;;12.23;3.42;;;48.30;55.00;;;;;;5133661;28;20080;-68
2021/06/30 12:12:49;;;;;;;16.55;3.53;;;48.20;47.60;;;;;;5133448;28;20031;-70
2021/06/30 12:15:17;;;;;;;18.17;4.10;;;48.40;52.90;;;;;;5133293;28;20027;-67
2021/06/30 12:17:51;;;;;;;16.67;3.70;;;48.80;49.40;;;;;;5133507;28;20027;-66
2021/06/30 12:20:20;;;;;;;10.98;3.72;;;48.60;39.30;;;;;;5133262;27;20459;-65
2021/06/30 12:22:47;;;;;;;12.30;3.17;;;48.10;38.80;;;;;;5137164;27;20055;-66
2021/06/30 12:25:16;;;;;;;18.17;5.30;;;48.20;38.70;;;;;;5137553;27;20023;-65
2021/06/30 12:27:43;;;;;;;19.10;4.00;;;;;;;;;;5119001;27;20020;-67
2021/06/30 12:30:36;;;;;;;20.75;4.00;;;48.40;42.10;;;;;;5118928;27;20409;-68
2021/06/30 12:33:13;;;;;;;16.05;3.90;;;48.30;37.90;;;;;;5126687;27;20043;-67
2021/06/30 12:35:49;;;;;;;16.83;4.15;;;48.70;46.40;;;;;;5116716;27;20044;-67
2021/06/30 12:38:31;;;;;;;20.15;4.25;;;48.50;43.10;;;;;;5136881;27;20027;-66
2021/06/30 12:41:08;;;;;;;14.02;3.63;;;48.70;43.70;;;;;;5118869;27;20091;-65
2021/06/30 12:43:34;;;;;;;14.23;3.75;;;48.80;58.70;;;;;;5137128;27;20371;-66
2021/06/30 12:46:00;;;;;;;19.48;4.20;;;49.20;36.60;;;;;;5137073;27;20019;-66
2021/06/30 12:48:34;;;;;;;17.08;3.83;;;49.70;36.00;;;;;;5118513;27;20030;-67
2021/06/30 12:51:14;;;;;;;20.48;5.47;;;50.10;34.90;;;;;;5137226;27;20093;-67
2021/06/30 12:53:41;;;;;;;23.50;4.93;;;49.90;34.70;;;;;;5136874;27;20030;-66
2021/06/30 12:56:13;;;;;;;21.42;4.18;;;50.00;35.00;;;;;;5116741;27;20038;-65
2021/06/30 12:58:44;;;;;;;18.80;3.97;;;49.90;34.90;;;;;;5118399;27;20031;-68
2021/06/30 13:01:13;;;;;;;26.15;4.22;;;50.20;35.90;;;;;;5118176;27;20027;-69
2021/06/30 13:03:49;;;;;;;17.52;3.97;;;50.40;35.20;;;;;;5117874;27;20528;-68
2021/06/30 13:06:21;;;;;;;25.00;4.40;;;49.80;34.00;;;;;;5115954;28;20028;-68
2021/06/30 13:09:02;;;;;;;22.20;3.80;;;49.60;35.20;;;;;;5119778;27;20019;-67
2021/06/30 13:11:28;;;;;;;22.65;4.30;;;49.40;35.80;;;;;;5130914;27;20138;-68
2021/06/30 13:13:59;;;;;;;20.55;4.20;;;49.90;35.50;;;;;;5136265;27;20026;-68
2021/06/30 13:16:25;;;;;;;;;;;50.50;37.40;;;;;;5136609;27;20019;-65
2021/06/30 13:18:57;;;;;;;16.85;3.92;;;50.30;34.90;;;;;;5136230;27;19955;-66
2021/06/30 13:21:31;;;;;;;18.10;3.85;;;50.60;35.10;;;;;;5136202;27;20023;-65
2021/06/30 13:26:49;;;;;;;19.13;4.10;;;51.10;38.70;;;;;;5115613;28;20382;-67
2021/06/30 13:35:20;;;;;;;9.70;3.40;;;49.50;35.50;;;;;;5115804;28;20118;-70
2021/06/30 13:38:00;;;;;;;20.55;4.38;;;50.10;36.10;;;;;;5115235;28;20545;-69
2021/06/30 13:40:30;;;;;;;18.75;3.65;;;50.90;34.10;;;;;;5115693;28;20468;-67
2021/06/30 13:42:59;;;;;;;25.05;4.05;;;51.70;34.00;;;;;;5115648;28;20020;-67
2021/06/30 13:45:25;;;;;;;23.23;4.65;;;51.90;34.60;;;;;;5115579;28;20027;-67
2021/06/30 13:47:51;;;;;;;18.73;4.20;;;52.30;34.50;;;;;;5097249;28;20138;-65
2021/06/30 13:50:18;;;;;;;17.27;3.97;;;52.90;34.10;;;;;;5097055;28;20505;-66
2021/06/30 13:52:44;;;;;;;20.25;5.00;;;53.40;33.90;;;;;;5108230;27;20033;-66
2021/06/30 13:55:10;;;;;;;22.42;4.00;;;53.60;34.30;;;;;;5135609;27;20046;-69
2021/06/30 13:57:37;;;;;;;13.23;4.43;;;53.50;34.20;;;;;;5135450;27;20036;-68
2021/06/30 14:00:05;;;;;;;14.65;4.00;;;52.50;33.70;;;;;;5135635;27;20107;-68
2021/06/30 14:02:31;;;;;;;13.60;4.43;;;51.50;34.60;;;;;;5117017;27;20034;-69
2021/06/30 14:04:57;;;;;;;11.07;3.53;;;52.00;52.70;;;;;;5135696;27;20031;-68
2021/06/30 14:07:23;;;;;;;19.38;4.03;;;52.00;34.40;;;;;;5135120;27;20031;-70
2021/06/30 14:09:49;;;;;;;19.15;3.42;;;52.50;34.30;;;;;;5135431;27;20080;-69
2021/06/30 14:12:15;;;;;;;17.00;3.58;;;52.90;34.30;;;;;;5134982;27;20019;-70
2021/06/30 14:14:41;;;;;;;11.75;3.70;;;52.50;34.90;;;;;;5134947;27;20466;-69
2021/06/30 14:17:06;;;;;;;17.10;3.80;;;53.10;33.90;;;;;;5116823;27;20034;-69
2021/06/30 14:19:32;;;;;;;19.65;4.07;;;53.60;34.30;;;;;;5135212;27;20066;-66
2021/06/30 14:21:58;;;;;;;13.20;3.70;;;53.50;33.50;;;;;;5135168;27;20483;-67
2021/06/30 14:24:24;;;;;;;17.08;4.20;;;53.70;33.50;;;;;;5135264;27;20030;-68